Time;durP1;ratioP1;P1;durP2;ratioP2;P2;SDS_P1;SDS_P2;PMS_P1;PMS_P2;Temp;Humidity;BMP_temperature;BMP_pressure;BME280_temperature;BME280_humidity;BME280_pressure;Samples;Min_cycle;Max_cycle;Signal;HPM_P1;HPM_P2
2023/06/25 00:00:45;;;;;;;;;;;20.30;52.20;;;;;;5089768;28;20267;-70
2023/06/25 00:03:11;;;;;;;;;;;20.30;1.00;;;;;;5089795;28;20016;-70
2023/06/25 00:05:36;;;;;;;;;;;20.20;99.90;;;;;;5087923;28;20420;-70
2023/06/25 00:08:02;;;;;;;;;;;20.20;18.80;;;;;;5088006;28;19920;-70
2023/06/25 00:10:27;;;;;;;;;;;20.20;99.90;;;;;;5089774;28;19931;-70
2023/06/25 00:12:53;;;;;;;;;;;20.20;1.00;;;;;;5088071;28;19920;-70
2023/06/25 00:15:18;;;;;;;;;;;20.20;99.90;;;;;;5089309;28;20380;-70
2023/06/25 00:17:47;;;;;;;;;;;20.20;99.90;;;;;;5088423;28;19920;-70
2023/06/25 00:20:14;;;;;;;;;;;20.20;99.90;;;;;;5087220;28;19920;-70
2023/06/25 00:22:39;;;;;;;;;;;20.10;99.90;;;;;;5071586;28;19919;-70
2023/06/25 00:25:05;;;;;;;;;;;20.10;1.00;;;;;;5087139;28;19965;-70
2023/06/25 00:27:30;;;;;;;;;;;20.10;4.10;;;;;;5073524;28;20473;-70
2023/06/25 00:30:00;;;;;;;;;;;20.10;1.00;;;;;;5086676;28;19971;-70
2023/06/25 00:32:25;;;;;;;;;;;20.00;1.00;;;;;;5083186;28;19919;-70
2023/06/25 00:34:57;;;;;;;;;;;20.00;99.90;;;;;;5095195;28;20403;-70
2023/06/25 00:37:23;;;;;;;;;;;20.00;99.90;;;;;;5100523;28;19986;-70
2023/06/25 00:39:48;;;;;;;;;;;19.90;99.90;;;;;;5097599;28;20390;-70
2023/06/25 00:42:15;;;;;;;;;;;19.90;99.90;;;;;;5096169;28;19999;-70
2023/06/25 00:44:41;;;;;;;;;;;19.90;1.00;;;;;;5091809;28;19945;-70
2023/06/25 00:47:15;;;;;;;;;;;19.80;1.00;;;;;;5096810;28;20038;-70
2023/06/25 00:49:45;;;;;;;;;;;19.80;99.00;;;;;;5093295;28;20427;-70
2023/06/25 00:52:11;;;;;;;;;;;19.80;99.90;;;;;;5099682;28;19930;-70
2023/06/25 00:54:38;;;;;;;;;;;19.70;99.90;;;;;;5108525;27;19930;-70
2023/06/25 00:57:04;;;;;;;;;;;19.70;99.90;;;;;;5091637;28;19924;-70
2023/06/25 00:59:30;;;;;;;;;;;19.70;99.90;;;;;;5091248;28;19924;-70
2023/06/25 01:01:58;;;;;;;;;;;19.70;99.90;;;;;;5092418;28;19963;-70
2023/06/25 01:04:33;;;;;;;;;;;19.70;99.90;;;;;;5095862;28;19974;-70
2023/06/25 01:07:01;;;;;;;;;;;19.60;99.90;;;;;;5111979;28;19969;-70
2023/06/25 01:09:27;;;;;;;;;;;19.60;99.90;;;;;;5092394;28;19920;-70
2023/06/25 01:11:59;;;;;;;;;;;19.60;99.90;;;;;;5102940;28;20544;-70
2023/06/25 01:14:27;;;;;;;;;;;19.60;1.00;;;;;;5103565;28;19966;-70
2023/06/25 01:16:53;;;;;;;;;;;19.50;1.00;;;;;;5097972;28;20672;-71
2023/06/25 01:19:18;;;;;;;;;;;19.50;99.90;;;;;;5091525;28;20011;-70
2023/06/25 01:21:45;;;;;;;;;;;19.50;1.00;;;;;;5091464;28;19967;-70
2023/06/25 01:24:11;;;;;;;;;;;19.50;1.00;;;;;;5092275;28;19969;-70
2023/06/25 01:26:36;;;;;;;;;;;19.50;1.00;;;;;;5091115;28;19920;-70
2023/06/25 01:29:02;;;;;;;;;;;19.50;1.00;;;;;;5090649;28;19986;-70
2023/06/25 01:31:30;;;;;;;;;;;19.40;1.00;;;;;;5091566;28;19920;-70
2023/06/25 01:33:56;;;;;;;;;;;19.40;1.00;;;;;;5073722;28;19947;-70
2023/06/25 01:36:22;;;;;;;;;;;19.40;5.60;;;;;;5091758;28;19973;-70
2023/06/25 01:38:47;;;;;;;;;;;19.40;17.80;;;;;;5091005;28;20327;-70
2023/06/25 01:41:13;;;;;;;;;;;19.40;75.30;;;;;;5089608;28;19920;-70
2023/06/25 01:43:38;;;;;;;;;;;19.40;72.00;;;;;;5073624;28;19927;-70
2023/06/25 01:46:04;;;;;;;;;;;19.30;93.60;;;;;;5091565;28;19927;-70
2023/06/25 01:48:30;;;;;;;;;;;19.30;99.90;;;;;;5092284;28;20026;-70
2023/06/25 01:50:56;;;;;;;;;;;19.30;99.90;;;;;;5089613;28;19937;-70
2023/06/25 01:53:22;;;;;;;;;;;19.30;99.90;;;;;;5073147;28;19924;-71
2023/06/25 01:55:47;;;;;;;;;;;19.30;99.90;;;;;;5095412;28;19924;-70
2023/06/25 01:58:13;;;;;;;;;;;19.20;99.90;;;;;;5110214;28;19927;-70
2023/06/25 02:00:40;;;;;;;;;;;19.20;99.90;;;;;;5091140;28;19919;-70
2023/06/25 02:03:08;;;;;;;;;;;19.20;99.90;;;;;;5073784;28;19928;-70
2023/06/25 02:05:34;;;;;;;;;;;19.20;99.90;;;;;;5091077;28;20010;-70
2023/06/25 02:07:59;;;;;;;;;;;19.20;99.90;;;;;;5090247;28;19927;-70
2023/06/25 02:10:26;;;;;;;;;;;19.10;99.90;;;;;;5091160;28;20346;-70
2023/06/25 02:12:52;;;;;;;;;;;19.10;99.90;;;;;;5090441;28;19924;-70
2023/06/25 02:15:17;;;;;;;;;;;19.10;99.90;;;;;;5093088;28;19932;-70
2023/06/25 02:17:43;;;;;;;;;;;19.00;99.90;;;;;;5091936;28;19920;-70
2023/06/25 02:20:08;;;;;;;;;;;19.00;99.90;;;;;;5089067;28;20072;-70
2023/06/25 02:22:34;;;;;;;;;;;19.00;99.90;;;;;;5089154;28;19920;-70
2023/06/25 02:24:59;;;;;;;;;;;18.90;99.90;;;;;;5088839;28;19920;-70
2023/06/25 02:27:25;;;;;;;;;;;18.90;99.90;;;;;;5089787;28;19920;-70
2023/06/25 02:29:50;;;;;;;;;;;18.80;99.90;;;;;;5090715;28;20300;-71
2023/06/25 02:32:16;;;;;;;;;;;18.80;99.90;;;;;;5089355;28;19920;-70
2023/06/25 02:34:41;;;;;;;;;;;18.80;99.90;;;;;;5089880;28;19965;-70
2023/06/25 02:37:11;;;;;;;;;;;18.80;99.90;;;;;;5090388;28;20313;-70
2023/06/25 02:39:36;;;;;;;;;;;18.80;99.90;;;;;;5073320;28;19920;-70
2023/06/25 02:42:02;;;;;;;;;;;18.80;99.90;;;;;;5088883;28;20003;-71
2023/06/25 02:44:27;;;;;;;;;;;18.80;99.90;;;;;;5090476;28;20357;-70
2023/06/25 02:46:53;;;;;;;;;;;18.80;99.90;;;;;;5072142;28;20011;-70
2023/06/25 02:49:18;;;;;;;;;;;18.80;99.90;;;;;;5091043;28;19927;-71
2023/06/25 02:51:44;;;;;;;;;;;18.80;99.90;;;;;;5088928;28;19920;-70
2023/06/25 02:54:09;;;;;;;;;;;18.80;99.90;;;;;;5088567;28;20289;-70
2023/06/25 02:56:35;;;;;;;;;;;18.80;99.90;;;;;;5090064;28;20305;-70
2023/06/25 02:59:00;;;;;;;;;;;18.80;99.90;;;;;;5088551;28;19920;-70
2023/06/25 03:01:26;;;;;;;;;;;18.80;99.90;;;;;;5088962;28;19920;-71
2023/06/25 03:03:51;;;;;;;;;;;18.80;99.90;;;;;;5088473;28;19951;-70
2023/06/25 03:06:17;;;;;;;;;;;18.70;99.90;;;;;;5090066;28;19924;-70
2023/06/25 03:08:42;;;;;;;;;;;18.70;99.90;;;;;;5088719;28;19919;-70
2023/06/25 03:11:08;;;;;;;;;;;18.70;99.90;;;;;;5088765;28;20290;-71
2023/06/25 03:13:33;;;;;;;;;;;18.70;99.90;;;;;;5088525;28;20412;-70
2023/06/25 03:15:59;;;;;;;;;;;18.70;99.90;;;;;;5089306;28;19919;-70
2023/06/25 03:18:24;;;;;;;;;;;18.70;99.90;;;;;;5071746;28;19919;-70
2023/06/25 03:20:50;;;;;;;;;;;18.80;99.90;;;;;;5072121;28;19927;-70
2023/06/25 03:23:16;;;;;;;;;;;18.80;99.90;;;;;;5089078;28;19920;-70
2023/06/25 03:25:41;;;;;;;;;;;18.80;99.90;;;;;;5072306;28;19931;-70
2023/06/25 03:28:07;;;;;;;;;;;18.90;99.90;;;;;;5088339;28;19924;-70
2023/06/25 03:30:32;;;;;;;;;;;18.90;99.90;;;;;;5088791;28;19923;-70
2023/06/25 03:32:58;;;;;;;;;;;18.90;99.90;;;;;;5091140;28;20400;-70
2023/06/25 03:35:23;;;;;;;;;;;18.90;99.90;;;;;;5089190;28;19930;-71
2023/06/25 03:37:48;;;;;;;;;;;18.90;99.90;;;;;;5089455;28;19920;-70
2023/06/25 03:40:14;;;;;;;;;;;18.90;99.90;;;;;;5089719;28;20796;-70
2023/06/25 03:42:39;;;;;;;;;;;18.90;99.90;;;;;;5073293;28;20014;-70
2023/06/25 03:45:05;;;;;;;;;;;18.90;99.90;;;;;;5089186;28;19969;-71
2023/06/25 03:47:31;;;;;;;;;;;18.90;99.90;;;;;;5091313;28;19974;-70
2023/06/25 03:49:56;;;;;;;;;;;18.90;99.90;;;;;;5089430;28;19924;-70
2023/06/25 03:52:22;;;;;;;;;;;18.90;99.90;;;;;;5076054;28;20007;-70
2023/06/25 03:54:47;;;;;;;;;;;19.00;99.90;;;;;;5088572;28;20290;-71
2023/06/25 03:57:13;;;;;;;;;;;19.00;99.90;;;;;;5088012;28;19970;-70
2023/06/25 03:59:38;;;;;;;;;;;19.00;99.90;;;;;;5089926;28;19920;-70
2023/06/25 04:02:05;;;;;;;;;;;19.00;99.90;;;;;;5071117;28;20224;-70
2023/06/25 04:04:30;;;;;;;;;;;19.00;99.90;;;;;;5088512;28;19920;-70
2023/06/25 04:06:56;;;;;;;;;;;19.00;99.90;;;;;;5088180;28;19965;-70
2023/06/25 04:09:21;;;;;;;;;;;19.00;99.90;;;;;;5088490;28;20282;-70
2023/06/25 04:11:47;;;;;;;;;;;19.00;99.90;;;;;;5088113;28;19920;-70
2023/06/25 04:14:12;;;;;;;;;;;19.10;99.90;;;;;;5089178;28;19920;-71
2023/06/25 04:16:38;;;;;;;;;;;19.10;99.90;;;;;;5105478;28;19920;-70
2023/06/25 04:19:03;;;;;;;;;;;19.10;99.90;;;;;;5110994;28;19924;-70
2023/06/25 04:21:29;;;;;;;;;;;19.20;99.90;;;;;;5109128;28;20305;-70
2023/06/25 04:23:54;;;;;;;;;;;19.20;99.90;;;;;;5091907;28;19927;-70
2023/06/25 04:26:20;;;;;;;;;;;19.30;99.90;;;;;;5104062;28;19920;-70
2023/06/25 04:28:45;;;;;;;;;;;19.30;99.90;;;;;;5092269;28;20683;-70
2023/06/25 04:31:11;;;;;;;;;;;19.30;99.90;;;;;;5090720;28;20449;-71
2023/06/25 04:33:41;;;;;;;;;;;19.40;99.90;;;;;;5092697;28;20274;-70
2023/06/25 04:36:07;;;;;;;;;;;19.40;99.90;;;;;;5074598;28;20313;-70
2023/06/25 04:38:33;;;;;;;;;;;19.50;99.90;;;;;;5091875;28;19926;-70
2023/06/25 04:41:00;;;;;;;;;;;19.50;99.90;;;;;;5091461;28;20316;-70
2023/06/25 04:43:25;;;;;;;;;;;19.60;99.90;;;;;;5093121;28;19924;-70
2023/06/25 04:45:51;;;;;;;;;;;19.60;99.90;;;;;;5075054;28;20736;-71
2023/06/25 04:48:17;;;;;;;;;;;19.70;99.90;;;;;;5095465;28;19924;-70
2023/06/25 04:50:43;;;;;;;;;;;19.70;99.90;;;;;;5077217;28;19924;-70
2023/06/25 04:53:08;;;;;;;;;;;19.80;99.90;;;;;;5091292;28;19931;-70
2023/06/25 04:55:34;;;;;;;;;;;19.80;99.90;;;;;;5090813;28;20735;-72
2023/06/25 04:57:59;;;;;;;;;;;19.90;99.90;;;;;;5091369;28;19924;-70
2023/06/25 05:00:25;;;;;;;;;;;19.90;99.90;;;;;;5091777;28;20475;-70
2023/06/25 05:02:50;;;;;;;;;;;20.00;99.90;;;;;;5091651;28;19965;-70
2023/06/25 05:05:16;;;;;;;;;;;20.10;99.90;;;;;;5092734;28;19923;-70
2023/06/25 05:07:41;;;;;;;;;;;20.20;99.90;;;;;;5091695;28;20010;-70
2023/06/25 05:10:07;;;;;;;;;;;20.20;99.90;;;;;;5090809;28;20363;-71
2023/06/25 05:12:33;;;;;;;;;;;20.20;99.90;;;;;;5091884;28;19959;-70
2023/06/25 05:14:58;;;;;;;;;;;20.30;99.90;;;;;;5091543;28;19924;-71
2023/06/25 05:17:23;;;;;;;;;;;20.40;99.90;;;;;;5091036;28;20007;-70
2023/06/25 05:19:49;;;;;;;;;;;20.40;99.90;;;;;;5093404;28;19920;-71
2023/06/25 05:22:14;;;;;;;;;;;20.50;96.40;;;;;;5091557;28;19980;-70
2023/06/25 05:24:40;;;;;;;;;;;20.50;20.90;;;;;;5074868;28;20335;-70
2023/06/25 05:27:05;;;;;;;;;;;20.50;1.00;;;;;;5090588;28;19963;-70
2023/06/25 05:29:31;;;;;;;;;;;20.60;1.00;;;;;;5091935;28;19927;-70
2023/06/25 05:31:56;;;;;;;;;;;20.60;99.90;;;;;;5074538;28;19927;-70
2023/06/25 05:34:22;;;;;;;;;;;20.70;99.90;;;;;;5092531;28;19926;-70
2023/06/25 05:36:48;;;;;;;;;;;20.70;99.90;;;;;;5075034;28;19923;-70
2023/06/25 05:39:13;;;;;;;;;;;20.80;60.00;;;;;;5093046;28;19930;-70
2023/06/25 05:41:39;;;;;;;;;;;20.80;1.00;;;;;;5090997;28;19924;-70
2023/06/25 05:44:05;;;;;;;;;;;20.90;10.60;;;;;;5090408;28;19967;-71
2023/06/25 05:46:30;;;;;;;;;;;21.00;99.90;;;;;;5090948;28;19988;-71
2023/06/25 05:48:56;;;;;;;;;;;21.00;1.00;;;;;;5074093;28;19950;-70
2023/06/25 05:51:21;;;;;;;;;;;21.10;99.90;;;;;;5089569;28;19966;-70
2023/06/25 05:53:47;;;;;;;;;;;21.20;99.90;;;;;;5102816;28;19968;-71
2023/06/25 05:56:12;;;;;;;;;;;21.20;1.00;;;;;;5098071;28;19923;-71
2023/06/25 05:58:38;;;;;;;;;;;21.30;99.90;;;;;;5095280;28;19923;-71
2023/06/25 06:01:04;;;;;;;;;;;21.40;99.90;;;;;;5108784;28;19955;-71
2023/06/25 06:03:29;;;;;;;;;;;21.40;99.90;;;;;;5108860;28;19923;-71
2023/06/25 06:05:56;;;;;;;;;;;21.50;99.90;;;;;;5101740;28;20385;-71
2023/06/25 06:08:21;;;;;;;;;;;21.50;49.20;;;;;;5102912;28;19920;-71
2023/06/25 06:10:47;;;;;;;;;;;21.60;12.50;;;;;;5092889;28;19923;-71
2023/06/25 06:13:12;;;;;;;;;;;21.60;99.90;;;;;;5108948;28;19924;-71
2023/06/25 06:15:38;;;;;;;;;;;21.70;99.90;;;;;;5110555;28;20422;-71
2023/06/25 06:18:03;;;;;;;;;;;21.70;1.00;;;;;;5094722;28;19920;-71
2023/06/25 06:20:29;;;;;;;;;;;21.80;99.90;;;;;;5089765;28;20378;-71
2023/06/25 06:22:54;;;;;;;;;;;21.80;99.90;;;;;;5090615;28;19927;-71
2023/06/25 06:25:19;;;;;;;;;;;21.90;99.90;;;;;;5090827;28;19924;-71
2023/06/25 06:27:45;;;;;;;;;;;21.90;1.00;;;;;;5093585;28;19920;-71
2023/06/25 06:30:11;;;;;;;;;;;21.90;1.00;;;;;;5090214;28;19920;-71
2023/06/25 06:32:36;;;;;;;;;;;21.90;99.90;;;;;;5092036;28;19977;-71
2023/06/25 06:35:02;;;;;;;;;;;22.00;99.90;;;;;;5074275;28;19920;-71
2023/06/25 06:37:27;;;;;;;;;;;22.10;99.90;;;;;;5090641;28;20391;-71
2023/06/25 06:39:53;;;;;;;;;;;22.10;99.80;;;;;;5090977;28;19920;-71
2023/06/25 06:42:18;;;;;;;;;;;22.20;96.00;;;;;;5075031;28;19928;-71
2023/06/25 06:44:44;;;;;;;;;;;22.20;7.20;;;;;;5092487;28;20382;-72
2023/06/25 06:47:09;;;;;;;;;;;22.30;1.00;;;;;;5092934;28;19970;-72
2023/06/25 06:49:35;;;;;;;;;;;22.40;99.90;;;;;;5094728;28;19919;-71
2023/06/25 06:52:00;;;;;;;;;;;22.40;99.90;;;;;;5090805;28;19924;-71
2023/06/25 06:54:26;;;;;;;;;;;22.40;99.90;;;;;;5090434;28;19991;-71
2023/06/25 06:56:51;;;;;;;;;;;22.50;99.90;;;;;;5089476;28;19927;-71
2023/06/25 06:59:17;;;;;;;;;;;22.60;99.90;;;;;;5088666;28;20014;-71
2023/06/25 07:01:42;;;;;;;;;;;22.70;99.90;;;;;;5088635;28;19920;-71
2023/06/25 07:04:08;;;;;;;;;;;22.70;92.10;;;;;;5088113;28;20679;-71
2023/06/25 07:06:33;;;;;;;;;;;22.70;43.20;;;;;;5088941;28;19931;-71
2023/06/25 07:09:02;;;;;;;;;;;22.80;41.20;;;;;;5089689;28;20013;-71
2023/06/25 07:11:27;;;;;;;;;;;22.90;1.00;;;;;;5089126;28;19919;-71
2023/06/25 07:13:53;;;;;;;;;;;22.90;26.00;;;;;;5087858;28;19924;-71
2023/06/25 07:16:18;;;;;;;;;;;22.90;47.60;;;;;;5092888;28;19920;-71
2023/06/25 07:18:44;;;;;;;;;;;22.90;8.80;;;;;;5096175;28;19920;-71
2023/06/25 07:21:10;;;;;;;;;;;22.90;20.80;;;;;;5093637;28;19924;-71
2023/06/25 07:23:36;;;;;;;;;;;23.00;53.60;;;;;;5092857;28;19927;-71
2023/06/25 07:26:01;;;;;;;;;;;23.10;68.80;;;;;;5094350;28;19920;-71
2023/06/25 07:28:27;;;;;;;;;;;23.20;71.50;;;;;;5073633;28;20047;-72
2023/06/25 07:30:52;;;;;;;;;;;23.30;12.90;;;;;;5084032;28;19920;-73
2023/06/25 07:33:18;;;;;;;;;;;23.40;6.20;;;;;;5081942;28;19931;-72
2023/06/25 07:35:43;;;;;;;;;;;23.50;1.00;;;;;;5094505;28;19920;-72
2023/06/25 07:38:09;;;;;;;;;;;23.50;1.00;;;;;;5082706;28;19930;-72
2023/06/25 07:40:34;;;;;;;;;;;23.50;1.00;;;;;;5093762;28;19991;-72
2023/06/25 07:43:01;;;;;;;;;;;23.60;1.00;;;;;;5099759;28;19928;-72
2023/06/25 07:45:26;;;;;;;;;;;23.60;1.00;;;;;;5094389;28;19920;-73
2023/06/25 07:47:52;;;;;;;;;;;23.60;1.00;;;;;;5100180;28;19927;-70
2023/06/25 07:50:17;;;;;;;;;;;23.70;1.00;;;;;;5089647;28;20335;-71
2023/06/25 07:52:43;;;;;;;;;;;23.70;1.00;;;;;;5083200;28;20003;-72
2023/06/25 07:55:09;;;;;;;;;;;23.80;1.00;;;;;;5083477;28;19924;-72
2023/06/25 07:57:34;;;;;;;;;;;23.90;1.00;;;;;;5085343;28;19924;-72
2023/06/25 07:59:59;;;;;;;;;;;23.90;1.00;;;;;;5076391;28;19985;-71
2023/06/25 08:02:25;;;;;;;;;;;24.00;1.00;;;;;;5065515;28;19920;-72
2023/06/25 08:04:51;;;;;;;;;;;24.10;1.00;;;;;;5086895;28;20362;-72
2023/06/25 08:07:16;;;;;;;;;;;24.10;1.00;;;;;;5085852;28;19920;-72
2023/06/25 08:09:43;;;;;;;;;;;24.30;1.00;;;;;;5083716;28;19926;-72
2023/06/25 08:12:09;;;;;;;;;;;24.40;1.00;;;;;;5082727;28;20431;-72
2023/06/25 08:14:34;;;;;;;;;;;24.50;99.90;;;;;;5087978;28;19920;-72
2023/06/25 08:17:00;;;;;;;;;;;24.60;99.90;;;;;;5091917;28;19923;-71
2023/06/25 08:19:25;;;;;;;;;;;24.60;99.90;;;;;;5079267;28;19963;-71
2023/06/25 08:21:51;;;;;;;;;;;24.70;99.90;;;;;;5084131;28;19978;-72
2023/06/25 08:24:16;;;;;;;;;;;24.80;99.90;;;;;;5093562;28;20493;-71
2023/06/25 08:26:42;;;;;;;;;;;24.90;99.90;;;;;;5087678;28;19920;-71
2023/06/25 08:29:07;;;;;;;;;;;24.90;99.90;;;;;;5078756;28;19921;-71
2023/06/25 08:31:33;;;;;;;;;;;25.00;99.90;;;;;;5092805;28;20398;-71
2023/06/25 08:33:58;;;;;;;;;;;25.10;99.90;;;;;;5095476;28;19923;-70
2023/06/25 08:36:24;;;;;;;;;;;25.20;99.90;;;;;;5094073;28;20385;-69
2023/06/25 08:38:49;;;;;;;;;;;25.30;99.90;;;;;;5093776;28;19920;-70
2023/06/25 08:41:15;;;;;;;;;;;25.40;99.90;;;;;;5095474;28;19959;-71
2023/06/25 08:43:40;;;;;;;;;;;25.50;81.60;;;;;;5091030;28;19926;-70
2023/06/25 08:46:07;;;;;;;;;;;25.60;69.70;;;;;;5086837;28;20377;-70
2023/06/25 08:48:33;;;;;;;;;;;25.70;62.30;;;;;;5093395;28;20015;-70
2023/06/25 08:51:02;;;;;;;;;;;25.80;3.30;;;;;;5096099;28;19931;-70
2023/06/25 08:53:28;;;;;;;;;;;26.00;1.00;;;;;;5087543;28;20003;-71
2023/06/25 08:55:54;;;;;;;;;;;26.00;1.00;;;;;;5091445;28;20011;-70
2023/06/25 08:58:21;;;;;;;;;;;26.00;1.00;;;;;;5091374;28;19920;-71
2023/06/25 09:00:47;;;;;;;;;;;26.10;1.00;;;;;;5091546;28;19978;-70
2023/06/25 09:03:12;;;;;;;;;;;26.20;1.00;;;;;;5091739;28;19989;-70
2023/06/25 09:05:38;;;;;;;;;;;26.30;1.00;;;;;;5090148;28;19927;-71
2023/06/25 09:08:04;;;;;;;;;;;26.30;1.00;;;;;;5091936;28;19926;-70
2023/06/25 09:10:32;;;;;;;;;;;26.40;99.90;;;;;;5091902;28;20053;-71
2023/06/25 09:13:00;;;;;;;;;;;26.50;99.90;;;;;;5091792;28;19924;-70
2023/06/25 09:15:25;;;;;;;;;;;26.60;99.90;;;;;;5088921;28;19935;-70
2023/06/25 09:17:55;;;;;;;;;;;26.70;99.90;;;;;;5090773;28;19920;-70
2023/06/25 09:20:21;;;;;;;;;;;26.90;99.90;;;;;;5090588;28;20458;-71
2023/06/25 09:22:50;;;;;;;;;;;26.90;99.90;;;;;;5073742;28;20010;-70
2023/06/25 09:25:17;;;;;;;;;;;27.00;99.90;;;;;;5089894;28;19924;-70
2023/06/25 09:27:43;;;;;;;;;;;27.20;99.90;;;;;;5091217;28;20022;-70
2023/06/25 09:30:10;;;;;;;;;;;27.30;99.90;;;;;;5091121;28;19927;-70
2023/06/25 09:32:35;;;;;;;;;;;27.40;99.90;;;;;;5090862;28;19927;-71
2023/06/25 09:35:03;;;;;;;;;;;27.60;99.90;;;;;;5089903;28;19919;-71
2023/06/25 09:37:28;;;;;;;8.13;4.97;;;27.90;99.90;;;;;;5091466;28;19920;-71
2023/06/25 09:39:54;;;;;;;7.07;5.33;;;28.20;99.90;;;;;;5091984;28;20413;-71
2023/06/25 09:42:19;;;;;;;;;;;28.50;99.90;;;;;;5089442;28;20101;-71
2023/06/25 09:44:47;;;;;;;5.70;4.55;;;28.60;99.90;;;;;;5090943;28;19951;-71
2023/06/25 09:47:15;;;;;;;;;;;28.90;99.90;;;;;;5091269;28;20048;-71
2023/06/25 09:49:41;;;;;;;;;;;29.10;99.90;;;;;;5091780;28;19938;-71
2023/06/25 09:52:14;;;;;;;4.47;3.80;;;29.40;99.90;;;;;;5090011;28;20392;-71
2023/06/25 09:54:41;;;;;;;5.43;4.10;;;29.60;99.90;;;;;;5090034;28;20409;-70
2023/06/25 09:57:09;;;;;;;5.35;4.30;;;29.90;99.90;;;;;;5088751;28;21749;-70
2023/06/25 09:59:36;;;;;;;4.82;4.07;;;30.10;99.90;;;;;;5090694;28;20040;-71
2023/06/25 10:02:04;;;;;;;;;;;30.20;99.90;;;;;;5091516;28;20036;-71
2023/06/25 10:04:32;;;;;;;6.88;4.10;;;30.30;99.90;;;;;;5090929;28;20393;-71
2023/06/25 10:06:58;;;;;;;5.50;3.80;;;30.60;99.90;;;;;;5089592;28;20896;-70
2023/06/25 10:09:24;;;;;;;5.27;3.60;;;30.70;99.90;;;;;;5089816;28;20445;-71
2023/06/25 10:11:54;;;;;;;;;;;30.80;99.90;;;;;;5090342;28;20048;-71
2023/06/25 10:14:20;;;;;;;;;;;31.00;99.90;;;;;;5093424;28;19927;-69
2023/06/25 10:17:11;;;;;;;;;;;31.10;99.90;;;;;;5090296;28;19920;-70
2023/06/25 10:19:37;;;;;;;;;;;31.30;99.90;;;;;;5089264;28;19927;-71
2023/06/25 10:22:12;;;;;;;;;;;31.40;99.90;;;;;;5091312;28;19920;-71
2023/06/25 10:24:38;;;;;;;;;;;31.50;99.90;;;;;;5090950;28;20340;-71
2023/06/25 10:27:04;;;;;;;4.88;3.40;;;31.70;99.90;;;;;;5088341;28;19967;-71
2023/06/25 10:29:39;;;;;;;8.65;4.20;;;31.80;99.90;;;;;;5087890;28;20444;-71
2023/06/25 10:32:05;;;;;;;4.67;3.67;;;31.90;99.90;;;;;;5088933;28;20444;-71
2023/06/25 10:34:35;;;;;;;;;;;32.20;99.90;;;;;;5091638;28;20082;-71
2023/06/25 10:37:03;;;;;;;6.25;3.83;;;32.30;99.90;;;;;;5090745;28;19967;-71
2023/06/25 10:39:47;;;;;;;6.47;3.60;;;32.40;99.90;;;;;;5091119;28;20066;-71
2023/06/25 10:42:13;;;;;;;6.70;3.72;;;32.50;99.90;;;;;;5085030;28;20383;-71
2023/06/25 10:44:40;;;;;;;6.53;4.50;;;32.60;99.90;;;;;;5092678;28;20476;-71
2023/06/25 10:47:10;;;;;;;4.30;3.78;;;32.60;99.90;;;;;;5089819;28;20430;-71
2023/06/25 10:49:36;;;;;;;5.35;3.50;;;32.50;99.90;;;;;;5087734;28;20410;-71
2023/06/25 10:52:03;;;;;;;5.43;3.20;;;32.50;99.90;;;;;;5088077;28;20429;-71
2023/06/25 10:54:30;;;;;;;;;;;32.70;99.90;;;;;;5109618;28;20050;-71
2023/06/25 10:57:12;;;;;;;;;;;32.60;99.90;;;;;;5094616;28;19920;-71
2023/06/25 10:59:38;;;;;;;4.07;2.70;;;32.60;99.90;;;;;;5088506;28;19927;-71
2023/06/25 11:02:16;;;;;;;6.30;3.50;;;32.80;99.90;;;;;;5087159;28;20405;-71
2023/06/25 11:04:42;;;;;;;;;;;33.00;99.90;;;;;;5088872;28;20070;-71
2023/06/25 11:07:11;;;;;;;4.70;3.13;;;33.30;99.90;;;;;;5071544;28;19920;-71
2023/06/25 11:09:38;;;;;;;5.80;3.60;;;33.40;99.90;;;;;;5088995;28;20425;-71
2023/06/25 11:12:07;;;;;;;4.15;3.20;;;33.40;99.90;;;;;;5089086;28;20398;-71
2023/06/25 11:14:33;;;;;;;5.20;2.87;;;33.50;99.90;;;;;;5088713;28;20398;-71
2023/06/25 11:16:59;;;;;;;4.53;3.15;;;33.60;99.90;;;;;;5088373;28;20436;-71
2023/06/25 11:19:26;;;;;;;4.00;3.10;;;33.70;99.90;;;;;;5088272;28;20904;-71
2023/06/25 11:21:52;;;;;;;4.30;2.90;;;33.80;99.90;;;;;;5089011;28;20406;-71
2023/06/25 11:24:17;;;;;;;3.97;2.50;;;33.90;99.90;;;;;;5088792;28;20405;-71
2023/06/25 11:26:44;;;;;;;4.47;2.77;;;33.90;99.90;;;;;;5088859;28;21061;-71
2023/06/25 11:29:11;;;;;;;3.72;2.90;;;33.90;99.90;;;;;;5088607;28;20425;-71
2023/06/25 11:31:44;;;;;;;3.30;2.92;;;34.00;99.90;;;;;;5088951;28;20071;-71
2023/06/25 11:34:23;;;;;;;3.45;2.80;;;34.00;99.90;;;;;;5089432;28;20401;-71
2023/06/25 11:36:48;;;;;;;3.93;3.20;;;34.00;99.90;;;;;;5078181;28;20448;-71
2023/06/25 11:39:15;;;;;;;3.47;2.70;;;33.90;99.90;;;;;;5087781;28;20497;-71
2023/06/25 11:41:41;;;;;;;;;;;34.10;99.90;;;;;;5090384;28;20059;-71
2023/06/25 11:44:17;;;;;;;4.28;2.67;;;34.20;99.90;;;;;;5089904;28;19934;-71
2023/06/25 11:46:52;;;;;;;3.65;2.72;;;34.30;99.90;;;;;;5086486;28;20425;-71
2023/06/25 11:49:18;;;;;;;4.40;2.97;;;34.40;99.90;;;;;;5088194;28;20430;-71
2023/06/25 11:51:52;;;;;;;;;;;34.60;99.90;;;;;;5070800;28;20044;-71
2023/06/25 11:54:17;;;;;;;3.35;2.20;;;34.70;99.90;;;;;;5088943;28;20019;-71
2023/06/25 11:56:43;;;;;;;3.73;2.43;;;34.70;99.90;;;;;;5088127;28;20485;-71
2023/06/25 11:59:08;;;;;;;3.67;2.73;;;34.70;99.90;;;;;;5087830;28;20477;-71
2023/06/25 12:01:34;;;;;;;;;;;34.80;99.90;;;;;;5089463;28;20040;-71
2023/06/25 12:03:59;;;;;;;2.95;2.00;;;34.90;99.90;;;;;;5089156;28;20356;-71
2023/06/25 12:06:25;;;;;;;4.93;2.40;;;35.00;99.90;;;;;;5071082;28;20122;-71
2023/06/25 12:08:51;;;;;;;3.50;2.65;;;35.00;99.90;;;;;;5088665;28;20048;-71
2023/06/25 12:11:17;;;;;;;3.93;2.93;;;35.00;99.90;;;;;;5069198;28;20409;-71
2023/06/25 12:13:43;;;;;;;3.72;2.35;;;35.00;99.90;;;;;;5090295;28;20938;-71
2023/06/25 12:16:08;;;;;;;;;;;35.10;99.90;;;;;;5071298;28;20044;-71
2023/06/25 12:18:34;;;;;;;3.97;2.53;;;35.30;99.90;;;;;;5074594;28;19920;-71
2023/06/25 12:21:00;;;;;;;4.63;2.88;;;35.60;99.90;;;;;;5072756;28;20109;-71
2023/06/25 12:23:25;;;;;;;3.58;2.30;;;35.70;99.90;;;;;;5091740;28;20072;-71
2023/06/25 12:25:51;;;;;;;5.30;2.50;;;35.70;99.90;;;;;;5090381;28;20048;-71
2023/06/25 12:28:16;;;;;;;4.97;2.45;;;35.80;99.90;;;;;;5092471;28;20044;-71
2023/06/25 12:30:42;;;;;;;3.00;2.40;;;36.10;99.90;;;;;;5090733;28;20482;-72
2023/06/25 12:33:08;;;;;;;5.40;2.70;;;36.20;99.90;;;;;;5091936;28;20035;-71
2023/06/25 12:35:34;;;;;;;4.07;2.50;;;36.30;99.20;;;;;;5090719;28;20044;-71
2023/06/25 12:37:59;;;;;;;3.43;2.70;;;36.20;99.20;;;;;;5090250;28;20421;-70
2023/06/25 12:40:25;;;;;;;3.13;2.60;;;36.20;98.70;;;;;;5089178;28;20402;-70
2023/06/25 12:42:51;;;;;;;2.97;2.38;;;36.10;98.50;;;;;;5095253;28;20051;-72
2023/06/25 12:45:17;;;;;;;3.25;2.30;;;36.10;98.20;;;;;;5093572;28;20074;-71
2023/06/25 12:47:42;;;;;;;2.60;2.03;;;36.10;98.30;;;;;;5095914;28;20121;-71
2023/06/25 12:50:10;;;;;;;;;;;36.10;97.80;;;;;;5091524;28;20448;-71
2023/06/25 12:52:36;;;;;;;5.32;2.80;;;36.10;97.10;;;;;;5072229;28;20947;-71
2023/06/25 12:55:04;;;;;;;3.67;2.47;;;36.10;96.80;;;;;;5090254;28;20040;-71
2023/06/25 12:57:30;;;;;;;4.60;2.40;;;36.10;96.90;;;;;;5075138;28;20088;-71
2023/06/25 12:59:55;;;;;;;3.33;2.30;;;36.20;96.30;;;;;;5092408;28;20035;-72
2023/06/25 13:02:21;;;;;;;4.40;1.90;;;36.20;99.90;;;;;;5090636;28;20039;-71
2023/06/25 13:04:46;;;;;;;3.75;2.08;;;36.30;96.20;;;;;;5091810;28;20520;-71
2023/06/25 13:07:12;;;;;;;2.70;2.20;;;36.40;95.40;;;;;;5092091;28;20426;-71
2023/06/25 13:09:38;;;;;;;3.63;2.33;;;36.40;95.10;;;;;;5099590;28;20762;-71
2023/06/25 13:12:04;;;;;;;3.05;2.10;;;36.50;94.90;;;;;;5102812;28;20760;-71
2023/06/25 13:14:30;;;;;;;3.03;2.20;;;36.60;95.40;;;;;;5089496;28;20896;-71
2023/06/25 13:16:55;;;;;;;5.07;2.35;;;36.70;94.70;;;;;;5101611;28;20395;-71
2023/06/25 13:19:21;;;;;;;2.33;2.00;;;36.90;94.50;;;;;;5108030;28;20459;-71
2023/06/25 13:21:48;;;;;;;3.25;2.00;;;37.00;93.70;;;;;;5084295;28;20080;-72
2023/06/25 13:24:14;;;;;;;3.08;2.05;;;36.90;93.70;;;;;;5099589;28;20396;-71
2023/06/25 13:26:44;;;;;;;3.47;1.87;;;36.70;93.40;;;;;;5104950;28;20421;-71
2023/06/25 13:29:10;;;;;;;3.47;2.20;;;36.70;93.30;;;;;;5090105;28;20400;-71
2023/06/25 13:31:36;;;;;;;2.85;1.95;;;36.90;92.90;;;;;;5091231;28;20390;-71
2023/06/25 13:34:02;;;;;;;2.90;2.00;;;37.00;92.80;;;;;;5099388;28;20397;-71
2023/06/25 13:36:29;;;;;;;;;;;37.20;92.70;;;;;;5105614;28;20035;-71
2023/06/25 13:38:55;;;;;;;;;;;37.40;92.90;;;;;;5100077;28;19924;-71
2023/06/25 13:41:21;;;;;;;3.35;1.90;;;37.60;92.30;;;;;;5098046;28;20704;-71
2023/06/25 13:43:47;;;;;;;2.65;1.92;;;37.80;92.10;;;;;;5103941;28;20079;-71
2023/06/25 13:46:13;;;;;;;2.78;2.10;;;38.00;98.30;;;;;;5093899;28;20043;-72
2023/06/25 13:48:39;;;;;;;6.35;2.45;;;38.10;91.80;;;;;;5098044;28;20512;-71